Time;durP1;ratioP1;P1;durP2;ratioP2;P2;SDS_P1;SDS_P2;PMS_P1;PMS_P2;Temp;Humidity;BMP_temperature;BMP_pressure;BME280_temperature;BME280_humidity;BME280_pressure;Samples;Min_cycle;Max_cycle;Signal;HPM_P1;HPM_P2
2022/09/08 00:00:42;;;;;;;5.47;1.65;;;;;;;;;;5065705;28;20114;-84
2022/09/08 00:03:17;;;;;;;9.45;1.67;;;;;;;;;;5066181;28;20036;-85
2022/09/08 00:05:52;;;;;;;5.88;1.50;;;;;;;;;;5066096;28;20025;-85
2022/09/08 00:08:20;;;;;;;4.47;1.60;;;;;;;;;;5066243;28;20093;-84
2022/09/08 00:10:47;;;;;;;5.35;1.63;;;;;;;;;;5066156;28;20036;-84
2022/09/08 00:13:13;;;;;;;4.03;1.55;;;;;;;;;;5066181;28;20025;-85
2022/09/08 00:15:38;;;;;;;4.47;1.42;;;;;;;;;;5065997;28;20029;-84
2022/09/08 00:18:06;;;;;;;5.60;1.73;;;;;;;;;;5066000;28;20025;-84
2022/09/08 00:20:32;;;;;;;5.53;1.63;;;;;;;;;;5065873;28;20028;-84
2022/09/08 00:22:57;;;;;;;3.95;1.50;;;;;;;;;;5065805;28;20052;-85
2022/09/08 00:25:23;;;;;;;6.68;1.88;;;;;;;;;;5064525;28;20021;-85
2022/09/08 00:27:49;;;;;;;6.45;1.50;;;;;;;;;;5065754;28;20023;-85
2022/09/08 00:30:14;;;;;;;5.43;1.65;;;;;;;;;;5065692;28;20208;-84
2022/09/08 00:32:39;;;;;;;4.85;1.65;;;;;;;;;;5065754;28;20048;-84
2022/09/08 00:35:14;;;;;;;5.63;1.73;;;;;;;;;;5065615;28;20017;-85
2022/09/08 00:37:42;;;;;;;5.70;1.70;;;;;;;;;;5065451;28;20029;-85
2022/09/08 00:40:08;;;;;;;4.78;1.60;;;;;;;;;;5065429;28;20376;-85
2022/09/08 00:42:34;;;;;;;8.80;1.83;;;;;;;;;;5065243;28;20036;-85
2022/09/08 00:45:00;;;;;;;5.85;1.70;;;;;;;;;;5065458;28;20021;-85
2022/09/08 00:47:29;;;;;;;9.25;1.75;;;;;;;;;;5065372;28;20052;-85
2022/09/08 00:50:03;;;;;;;4.95;2.20;;;;;;;;;;5065379;28;20024;-84
2022/09/08 00:52:40;;;;;;;7.32;1.92;;;;;;;;;;5065340;28;20040;-85
2022/09/08 00:55:07;;;;;;;5.15;1.70;;;;;;;;;;5065529;28;20020;-84
2022/09/08 00:57:33;;;;;;;6.70;1.70;;;;;;;;;;5065130;28;20021;-85
2022/09/08 00:59:59;;;;;;;6.05;1.60;;;;;;;;;;5065098;28;20468;-85
2022/09/08 01:02:25;;;;;;;5.32;1.83;;;;;;;;;;5064883;28;20046;-84
2022/09/08 01:04:59;;;;;;;4.57;1.63;;;;;;;;;;5065258;28;20025;-85
2022/09/08 01:13:36;;;;;;;8.93;1.90;;;;;;;;;;5064720;28;20036;-85
2022/09/08 01:16:03;;;;;;;3.60;1.83;;;;;;;;;;5064873;28;20020;-83
2022/09/08 01:18:29;;;;;;;5.75;1.88;;;;;;;;;;5064711;28;20047;-84
2022/09/08 01:21:07;;;;;;;6.45;2.13;;;;;;;;;;5064814;28;20052;-84
2022/09/08 01:24:01;;;;;;;7.32;2.08;;;;;;;;;;5063390;28;20031;-84
2022/09/08 01:27:10;;;;;;;6.13;1.98;;;;;;;;;;5064606;28;20021;-83
2022/09/08 01:29:37;;;;;;;7.40;1.90;;;;;;;;;;5042859;28;20137;-84
2022/09/08 01:32:04;;;;;;;5.32;2.10;;;;;;;;;;5061593;28;20058;-86
2022/09/08 01:34:37;;;;;;;7.45;2.00;;;;;;;;;;5064472;28;20025;-82
2022/09/08 01:37:03;;;;;;;6.55;1.80;;;;;;;;;;5064497;28;20025;-83
2022/09/08 01:39:28;;;;;;;7.03;2.45;;;;;;;;;;5064403;28;20295;-84
2022/09/08 01:41:53;;;;;;;4.45;1.80;;;;;;;;;;5064349;28;20328;-83
2022/09/08 01:44:19;;;;;;;5.95;1.80;;;;;;;;;;5064457;28;20025;-84
2022/09/08 01:46:44;;;;;;;9.55;1.95;;;;;;;;;;5064198;28;20059;-84
2022/09/08 01:49:09;;;;;;;6.45;1.90;;;;;;;;;;5064238;28;20021;-83
2022/09/08 01:51:35;;;;;;;8.85;2.10;;;;;;;;;;5064177;28;20025;-85
2022/09/08 01:54:00;;;;;;;5.80;2.05;;;;;;;;;;5064214;28;20044;-85
2022/09/08 01:56:25;;;;;;;4.65;1.80;;;;;;;;;;5064235;28;20066;-85
2022/09/08 01:58:51;;;;;;;4.28;1.80;;;;;;;;;;5064156;28;20021;-84
2022/09/08 02:01:16;;;;;;;6.78;1.90;;;;;;;;;;5063985;28;20062;-84
2022/09/08 02:03:42;;;;;;;8.13;1.95;;;;;;;;;;5063995;28;20024;-86
2022/09/08 02:06:08;;;;;;;9.20;1.50;;;;;;;;;;5063916;28;20028;-84
2022/09/08 02:08:33;;;;;;;8.65;2.10;;;;;;;;;;5063891;28;20049;-84
2022/09/08 02:10:59;;;;;;;7.28;1.90;;;;;;;;;;5063951;28;20185;-85
2022/09/08 02:13:25;;;;;;;8.18;2.30;;;;;;;;;;5063900;28;20075;-85
2022/09/08 02:15:57;;;;;;;8.13;1.85;;;;;;;;;;5063969;28;20039;-84
2022/09/08 02:18:23;;;;;;;7.22;1.63;;;;;;;;;;5063857;28;20105;-85
2022/09/08 02:20:48;;;;;;;5.43;1.88;;;;;;;;;;5063538;28;20333;-84
2022/09/08 02:23:13;;;;;;;4.75;1.70;;;;;;;;;;5062964;28;20042;-84
2022/09/08 02:25:39;;;;;;;4.65;1.90;;;;;;;;;;5063715;28;20025;-87
2022/09/08 02:28:04;;;;;;;7.18;2.00;;;;;;;;;;5063667;28;20344;-86
2022/09/08 02:30:29;;;;;;;7.60;1.98;;;;;;;;;;5063654;28;20263;-89
2022/09/08 02:32:55;;;;;;;9.57;2.03;;;;;;;;;;5063738;28;20032;-86
2022/09/08 02:35:20;;;;;;;5.95;1.70;;;;;;;;;;5063448;28;20028;-85
2022/09/08 02:37:45;;;;;;;6.88;1.80;;;;;;;;;;5063641;28;20052;-85
2022/09/08 02:40:12;;;;;;;4.57;1.60;;;;;;;;;;5062484;28;20154;-85
2022/09/08 02:42:38;;;;;;;6.05;1.98;;;;;;;;;;5062188;28;20252;-84
2022/09/08 02:45:04;;;;;;;4.55;1.63;;;;;;;;;;5063493;28;20321;-85
2022/09/08 02:47:33;;;;;;;8.07;2.20;;;;;;;;;;5063352;28;20051;-85
2022/09/08 02:49:58;;;;;;;6.90;1.90;;;;;;;;;;5063649;28;20090;-85
2022/09/08 02:52:23;;;;;;;5.70;1.77;;;;;;;;;;5063569;28;20024;-85
2022/09/08 02:54:49;;;;;;;7.95;2.00;;;;;;;;;;5063433;28;20070;-88
2022/09/08 02:57:14;;;;;;;8.65;2.47;;;;;;;;;;5063701;28;20021;-87
2022/09/08 02:59:39;;;;;;;5.28;2.10;;;;;;;;;;5063402;28;20028;-86
2022/09/08 03:02:05;;;;;;;9.57;2.70;;;;;;;;;;5063056;28;20039;-83
2022/09/08 03:04:30;;;;;;;7.45;2.35;;;;;;;;;;5063448;28;20097;-85
2022/09/08 03:06:56;;;;;;;9.65;3.10;;;;;;;;;;5063445;28;20131;-88
2022/09/08 03:09:21;;;;;;;6.75;3.03;;;;;;;;;;5063486;28;20303;-88
2022/09/08 03:11:47;;;;;;;8.57;3.45;;;;;;;;;;5063372;28;20025;-85
2022/09/08 03:14:12;;;;;;;10.48;3.90;;;;;;;;;;5063569;28;20045;-83
2022/09/08 03:16:39;;;;;;;8.93;3.38;;;;;;;;;;5063244;28;20092;-86
2022/09/08 03:19:04;;;;;;;12.85;3.55;;;;;;;;;;5063166;28;20088;-87
2022/09/08 03:21:30;;;;;;;10.57;3.90;;;;;;;;;;5063348;28;20028;-89
2022/09/08 03:23:55;;;;;;;7.68;3.90;;;;;;;;;;5063472;28;20208;-86
2022/09/08 03:26:22;;;;;;;10.18;4.05;;;;;;;;;;5063314;28;20094;-87
2022/09/08 03:28:48;;;;;;;11.68;3.75;;;;;;;;;;5063187;28;20017;-85
2022/09/08 03:31:16;;;;;;;11.90;3.90;;;;;;;;;;5063293;28;20089;-84
2022/09/08 03:33:43;;;;;;;8.60;4.03;;;;;;;;;;5064764;28;20017;-84
2022/09/08 03:36:10;;;;;;;10.35;4.03;;;;;;;;;;5066995;28;20107;-85
2022/09/08 03:38:36;;;;;;;11.07;4.03;;;;;;;;;;5066707;28;20028;-83
2022/09/08 03:41:12;;;;;;;10.00;3.80;;;;;;;;;;5065520;28;20017;-83
2022/09/08 03:43:42;;;;;;;15.82;4.75;;;;;;;;;;5066676;28;20339;-86
2022/09/08 03:46:08;;;;;;;10.35;4.40;;;;;;;;;;5066692;28;20375;-84
2022/09/08 03:48:41;;;;;;;11.25;4.45;;;;;;;;;;5063994;28;20029;-83
2022/09/08 03:51:22;;;;;;;12.68;4.55;;;;;;;;;;5056878;28;20057;-86
2022/09/08 03:53:48;;;;;;;13.15;4.80;;;;;;;;;;5066433;28;20092;-84
2022/09/08 03:56:13;;;;;;;12.60;4.50;;;;;;;;;;5066296;28;20067;-85
2022/09/08 03:58:40;;;;;;;10.65;4.05;;;;;;;;;;5066424;28;20228;-84
2022/09/08 04:01:15;;;;;;;9.32;5.00;;;;;;;;;;5066129;28;20060;-86
2022/09/08 04:03:41;;;;;;;9.43;4.03;;;;;;;;;;5066199;28;20047;-83
2022/09/08 04:06:07;;;;;;;14.07;5.15;;;;;;;;;;5065099;28;20321;-85
2022/09/08 04:08:33;;;;;;;15.40;5.10;;;;;;;;;;5066121;28;20059;-87
2022/09/08 04:11:00;;;;;;;12.77;4.68;;;;;;;;;;5066078;28;20025;-84
2022/09/08 04:13:26;;;;;;;14.10;4.47;;;;;;;;;;5065906;28;20021;-86
2022/09/08 04:15:52;;;;;;;11.95;4.53;;;;;;;;;;5066054;28;20021;-82
2022/09/08 04:18:17;;;;;;;11.35;4.85;;;;;;;;;;5066034;28;20052;-83
2022/09/08 04:20:42;;;;;;;10.63;4.20;;;;;;;;;;5066018;28;20024;-83
2022/09/08 04:23:08;;;;;;;11.80;3.97;;;;;;;;;;5065863;28;20100;-83
2022/09/08 04:25:34;;;;;;;11.00;4.20;;;;;;;;;;5065815;28;20032;-86
2022/09/08 04:27:59;;;;;;;11.52;4.00;;;;;;;;;;5065820;28;20190;-82
2022/09/08 04:30:25;;;;;;;12.52;3.75;;;;;;;;;;5065693;28;20028;-83
2022/09/08 04:32:50;;;;;;;11.23;3.53;;;;;;;;;;5065901;28;20025;-87
2022/09/08 04:35:16;;;;;;;13.70;3.90;;;;;;;;;;5065743;28;20021;-84
2022/09/08 04:37:41;;;;;;;9.13;3.60;;;;;;;;;;5065857;28;20088;-83
2022/09/08 04:40:07;;;;;;;11.82;3.45;;;;;;;;;;5065652;28;20238;-85
2022/09/08 04:42:33;;;;;;;11.65;3.42;;;;;;;;;;5065511;28;20105;-83
2022/09/08 04:45:03;;;;;;;11.13;3.75;;;;;;;;;;5064897;28;20309;-84
2022/09/08 04:47:28;;;;;;;5.88;3.05;;;;;;;;;;5065445;28;20028;-86
2022/09/08 04:49:53;;;;;;;14.43;3.58;;;;;;;;;;5065485;28;20021;-86
2022/09/08 04:52:24;;;;;;;10.13;3.20;;;;;;;;;;5065147;28;20321;-87
2022/09/08 04:54:49;;;;;;;11.88;3.65;;;;;;;;;;5065326;28;20044;-82
2022/09/08 04:57:15;;;;;;;12.52;4.32;;;;;;;;;;5065203;28;20017;-84
2022/09/08 04:59:41;;;;;;;11.02;3.95;;;;;;;;;;5065093;28;20088;-84
2022/09/08 05:02:06;;;;;;;10.25;4.43;;;;;;;;;;5064947;28;20039;-83
2022/09/08 05:04:31;;;;;;;12.55;5.10;;;;;;;;;;5064946;28;20190;-83
2022/09/08 05:06:57;;;;;;;11.57;3.97;;;;;;;;;;5065016;28;20217;-84
2022/09/08 05:09:22;;;;;;;12.25;4.35;;;;;;;;;;5065079;28;20033;-83
2022/09/08 05:11:48;;;;;;;11.98;4.50;;;;;;;;;;5064864;28;20083;-84
2022/09/08 05:14:13;;;;;;;8.60;4.50;;;;;;;;;;5064916;28;20029;-83
2022/09/08 05:16:39;;;;;;;10.13;4.60;;;;;;;;;;5064780;28;20260;-81
2022/09/08 05:19:06;;;;;;;12.95;5.00;;;;;;;;;;5064815;28;20021;-87
2022/09/08 05:21:33;;;;;;;7.93;4.00;;;;;;;;;;5064934;28;20021;-92
2022/09/08 05:24:00;;;;;;;11.25;4.00;;;;;;;;;;5064709;28;20043;-85
2022/09/08 05:26:26;;;;;;;8.75;3.65;;;;;;;;;;5064740;28;20020;-87
2022/09/08 05:28:52;;;;;;;10.95;4.28;;;;;;;;;;5064513;28;20140;-91
2022/09/08 05:31:23;;;;;;;12.80;3.45;;;;;;;;;;5063509;28;20063;-91
2022/09/08 05:33:49;;;;;;;13.88;3.47;;;;;;;;;;5064652;28;20356;-83
2022/09/08 05:36:23;;;;;;;11.43;3.38;;;;;;;;;;5064348;28;20028;-89
2022/09/08 05:38:49;;;;;;;10.98;3.67;;;;;;;;;;5064644;28;20021;-84
2022/09/08 05:41:15;;;;;;;10.30;3.13;;;;;;;;;;5064564;28;20027;-84
2022/09/08 05:43:41;;;;;;;11.25;3.88;;;;;;;;;;5064631;28;20047;-91
2022/09/08 05:46:07;;;;;;;12.90;3.47;;;;;;;;;;5066064;28;20252;-84
2022/09/08 05:48:32;;;;;;;12.48;3.50;;;;;;;;;;5064546;28;20025;-85
2022/09/08 05:50:58;;;;;;;10.45;3.45;;;;;;;;;;5064383;28;20260;-91
2022/09/08 05:53:24;;;;;;;10.15;3.35;;;;;;;;;;5065310;28;20036;-90
2022/09/08 05:56:01;;;;;;;11.70;3.45;;;;;;;;;;5063863;28;20078;-88
2022/09/08 05:58:28;;;;;;;14.50;3.30;;;;;;;;;;5063453;28;20053;-93
2022/09/08 06:01:02;;;;;;;15.05;3.63;;;;;;;;;;5063848;28;20083;-85
2022/09/08 06:03:33;;;;;;;14.50;3.80;;;;;;;;;;5063743;28;20217;-85
2022/09/08 06:06:07;;;;;;;13.13;3.90;;;;;;;;;;5063785;28;20017;-83
2022/09/08 06:08:33;;;;;;;11.45;3.92;;;;;;;;;;5063771;28;20017;-85
2022/09/08 06:10:59;;;;;;;13.00;3.60;;;;;;;;;;5063582;28;20292;-85
2022/09/08 06:13:24;;;;;;;13.65;3.58;;;;;;;;;;5063527;28;20017;-85
2022/09/08 06:15:50;;;;;;;13.10;4.07;;;;;;;;;;5063256;28;20042;-85
2022/09/08 06:18:16;;;;;;;17.90;4.03;;;;;;;;;;5063680;28;20070;-85
2022/09/08 06:20:43;;;;;;;12.40;3.33;;;;;;;;;;5063766;28;20017;-85
2022/09/08 06:23:10;;;;;;;12.27;3.63;;;;;;;;;;5063173;28;20025;-85
2022/09/08 06:25:43;;;;;;;13.13;3.72;;;;;;;;;;5063674;28;20384;-86
2022/09/08 06:28:28;;;;;;;16.02;3.80;;;;;;;;;;5063340;28;20052;-85
2022/09/08 06:30:55;;;;;;;17.48;3.90;;;;;;;;;;5062391;28;20297;-85
2022/09/08 06:33:41;;;;;;;10.55;3.45;;;;;;;;;;5062252;28;20491;-85
2022/09/08 06:36:13;;;;;;;;;;;;;;;;;;5062745;28;20021;-86
2022/09/08 06:39:00;;;;;;;19.85;3.85;;;;;;;;;;5062181;28;19947;-85
2022/09/08 06:41:29;;;;;;;16.48;3.85;;;;;;;;;;5063110;28;20309;-86
2022/09/08 06:44:05;;;;;;;13.10;2.92;;;;;;;;;;5063148;28;20095;-84
2022/09/08 06:46:37;;;;;;;9.40;2.80;;;;;;;;;;5061865;28;20208;-85
2022/09/08 06:49:03;;;;;;;18.80;3.13;;;;;;;;;;5063182;28;20244;-86
2022/09/08 06:51:42;;;;;;;13.77;3.67;;;;;;;;;;5061777;28;20070;-85
2022/09/08 06:54:34;;;;;;;11.93;3.05;;;;;;;;;;5062550;28;20029;-84
2022/09/08 06:57:30;;;;;;;11.05;3.10;;;;;;;;;;5063656;28;20036;-84
2022/09/08 07:00:01;;;;;;;9.98;2.60;;;;;;;;;;5063237;28;20025;-84
2022/09/08 07:02:54;;;;;;;17.33;2.97;;;;;;;;;;5062929;28;20033;-85
2022/09/08 07:05:31;;;;;;;9.25;2.78;;;;;;;;;;5062172;28;20334;-85
2022/09/08 07:08:30;;;;;;;11.60;3.08;;;;;;;;;;5063601;28;20025;-86
2022/09/08 07:11:01;;;;;;;9.23;2.80;;;;;;;;;;5066916;28;20088;-84
2022/09/08 07:13:51;;;;;;;11.18;2.90;;;;;;;;;;5067055;28;20025;-85
2022/09/08 07:16:28;;;;;;;12.48;2.95;;;;;;;;;;5066452;28;20064;-84
2022/09/08 07:19:14;;;;;;;9.30;2.60;;;;;;;;;;5065682;28;20025;-84
2022/09/08 07:22:12;;;;;;;13.40;2.90;;;;;;;;;;5066952;28;20396;-85
2022/09/08 07:24:41;;;;;;;10.82;2.60;;;;;;;;;;5066782;28;20036;-86
2022/09/08 07:27:12;;;;;;;12.40;2.83;;;;;;;;;;5066862;28;20087;-85
2022/09/08 07:29:40;;;;;;;13.07;3.20;;;;;;;;;;5066024;28;20031;-87
2022/09/08 07:32:14;;;;;;;13.82;2.60;;;;;;;;;;5066131;28;20096;-87
2022/09/08 07:34:46;;;;;;;14.68;2.70;;;;;;;;;;5066147;28;20021;-87
2022/09/08 07:37:19;;;;;;;13.80;3.08;;;;;;;;;;5066728;28;20051;-86
2022/09/08 07:40:01;;;;;;;12.38;2.60;;;;;;;;;;5065554;28;20088;-87
2022/09/08 07:42:27;;;;;;;11.68;2.75;;;;;;;;;;5066315;28;20095;-87
2022/09/08 07:45:01;;;;;;;10.85;3.00;;;;;;;;;;5065477;28;20025;-84
2022/09/08 07:47:35;;;;;;;13.88;2.85;;;;;;;;;;5065335;28;20017;-91
2022/09/08 07:50:04;;;;;;;13.77;2.67;;;;;;;;;;5065472;28;20088;-88
2022/09/08 07:52:35;;;;;;;12.55;2.72;;;;;;;;;;5066243;28;20232;-86
2022/09/08 07:55:09;;;;;;;10.10;2.88;;;;;;;;;;5066168;28;20108;-85
2022/09/08 07:57:59;;;;;;;11.80;3.17;;;;;;;;;;5066222;28;20049;-86
2022/09/08 08:00:48;;;;;;;12.25;2.85;;;;;;;;;;5065994;28;20217;-86
2022/09/08 08:03:23;;;;;;;14.27;3.10;;;;;;;;;;5066071;28;20032;-90
2022/09/08 08:05:55;;;;;;;13.15;2.67;;;;;;;;;;5066141;28;20324;-83
2022/09/08 08:09:03;;;;;;;13.25;2.50;;;;;;;;;;5065098;28;20044;-86
2022/09/08 08:11:37;;;;;;;11.68;2.90;;;;;;;;;;5054269;28;20039;-88
2022/09/08 08:14:21;;;;;;;10.00;2.38;;;;;;;;;;5066104;28;20324;-89
2022/09/08 08:17:01;;;;;;;14.18;2.35;;;;;;;;;;5066000;28;20044;-91
2022/09/08 08:19:36;;;;;;;9.68;1.98;;;;;;;;;;5065081;28;20048;-87
2022/09/08 08:22:14;;;;;;;12.45;2.40;;;;;;;;;;5065841;28;20021;-88
2022/09/08 08:24:58;;;;;;;15.05;2.30;;;;;;;;;;5064968;28;20039;-89
2022/09/08 08:27:48;;;;;;;11.70;2.05;;;;;;;;;;5064520;28;20031;-92
2022/09/08 08:30:21;;;;;;;11.25;2.45;;;;;;;;;;5065434;28;20101;-89
2022/09/08 08:32:54;;;;;;;12.35;2.42;;;;;;;;;;5064956;28;20021;-85
2022/09/08 08:35:30;;;;;;;14.55;2.42;;;;;;;;;;5064451;28;20032;-86
2022/09/08 08:37:56;;;;;;;9.48;2.30;;;;;;;;;;5065502;28;20052;-84
2022/09/08 08:40:56;;;;;;;9.93;2.25;;;;;;;;;;5065657;28;20364;-87
2022/09/08 08:43:25;;;;;;;11.88;2.35;;;;;;;;;;5065358;28;20033;-88
2022/09/08 08:46:20;;;;;;;9.18;2.28;;;;;;;;;;5065463;28;20031;-89
2022/09/08 08:49:04;;;;;;;13.40;2.67;;;;;;;;;;5064853;28;20033;-86
2022/09/08 08:51:42;;;;;;;11.25;2.20;;;;;;;;;;5064115;28;20082;-89
2022/09/08 08:54:19;;;;;;;13.45;2.28;;;;;;;;;;5065564;28;20063;-87
2022/09/08 08:57:05;;;;;;;11.32;2.17;;;;;;;;;;5065467;28;20024;-84
2022/09/08 09:00:03;;;;;;;12.82;2.42;;;;;;;;;;5065501;28;20025;-93
2022/09/08 09:02:35;;;;;;;10.60;2.38;;;;;;;;;;5065182;28;20033;-88
2022/09/08 09:05:25;;;;;;;9.65;1.98;;;;;;;;;;5065123;28;20051;-81
2022/09/08 09:08:16;;;;;;;9.07;2.08;;;;;;;;;;5065366;28;20025;-82
2022/09/08 09:10:59;;;;;;;9.48;2.20;;;;;;;;;;5065456;28;20090;-89
2022/09/08 09:13:36;;;;;;;13.77;2.28;;;;;;;;;;5065216;28;20220;-87
2022/09/08 09:16:34;;;;;;;9.75;2.30;;;;;;;;;;5065336;28;20021;-87
2022/09/08 09:19:08;;;;;;;9.85;2.25;;;;;;;;;;5065050;28;20020;-83
2022/09/08 09:21:58;;;;;;;9.10;2.20;;;;;;;;;;5064957;28;20028;-90
2022/09/08 09:24:37;;;;;;;10.80;2.42;;;;;;;;;;5064837;28;20056;-82
2022/09/08 09:27:39;;;;;;;13.02;2.45;;;;;;;;;;5064968;28;20025;-82
2022/09/08 09:30:20;;;;;;;9.55;2.42;;;;;;;;;;5064905;28;20025;-88
2022/09/08 09:33:14;;;;;;;15.07;2.42;;;;;;;;;;5064553;28;20020;-81
2022/09/08 09:36:13;;;;;;;7.65;2.40;;;;;;;;;;5055052;28;20100;-82
2022/09/08 09:38:57;;;;;;;9.13;2.25;;;;;;;;;;5064480;28;20048;-87
2022/09/08 09:41:56;;;;;;;10.93;2.10;;;;;;;;;;5064513;28;20088;-82
2022/09/08 09:44:27;;;;;;;10.38;1.92;;;;;;;;;;5064842;28;20029;-82
2022/09/08 09:47:17;;;;;;;9.93;2.38;;;;;;;;;;5064544;28;20021;-86
2022/09/08 09:50:01;;;;;;;9.65;2.10;;;;;;;;;;5064468;28;20277;-83
2022/09/08 09:52:57;;;;;;;8.68;2.25;;;;;;;;;;5064467;28;20029;-83
2022/09/08 09:56:11;;;;;;;10.68;1.92;;;;;;;;;;5063162;28;20028;-81
2022/09/08 09:58:53;;;;;;;9.93;1.85;;;;;;;;;;5062134;28;20044;-82
2022/09/08 10:01:41;;;;;;;8.30;2.25;;;;;;;;;;5062900;28;20217;-81
2022/09/08 10:04:29;;;;;;;11.05;2.22;;;;;;;;;;5062895;28;20033;-82
2022/09/08 10:07:32;;;;;;;13.35;2.55;;;;;;;;;;5054975;28;20044;-84
2022/09/08 10:10:32;;;;;;;11.80;2.17;;;;;;;;;;5026257;28;20048;-88
2022/09/08 10:13:15;;;;;;;10.45;2.00;;;;;;;;;;5042384;28;20048;-88
2022/09/08 10:16:22;;;;;;;13.52;2.20;;;;;;;;;;5055271;28;20124;-89
2022/09/08 10:19:04;;;;;;;8.50;1.90;;;;;;;;;;5053336;28;20037;-89
2022/09/08 10:21:51;;;;;;;11.57;2.15;;;;;;;;;;5062913;28;20025;-89
2022/09/08 10:24:43;;;;;;;7.50;1.90;;;;;;;;;;5063679;28;20029;-88
2022/09/08 10:27:57;;;;;;;8.40;1.90;;;;;;;;;;5042469;28;20036;-89
2022/09/08 10:30:41;;;;;;;8.63;1.90;;;;;;;;;;5028146;28;20040;-88
2022/09/08 10:33:54;;;;;;;6.72;1.73;;;;;;;;;;5062856;28;20036;-89
2022/09/08 10:36:46;;;;;;;10.93;1.80;;;;;;;;;;5025810;28;20062;-88
2022/09/08 10:40:04;;;;;;;8.40;1.70;;;;;;;;;;5063638;28;20021;-89
2022/09/08 10:42:47;;;;;;;7.10;2.00;;;;;;;;;;5060080;28;20240;-89
2022/09/08 10:45:45;;;;;;;6.00;1.83;;;;;;;;;;5067947;28;20370;-92
2022/09/08 10:48:52;;;;;;;6.80;1.58;;;;;;;;;;5029563;28;20076;-87
2022/09/08 10:51:32;;;;;;;9.35;1.50;;;;;;;;;;5055114;28;20052;-88
2022/09/08 10:54:06;;;;;;;10.43;2.10;;;;;;;;;;5067915;28;20029;-91
2022/09/08 10:56:44;;;;;;;7.67;1.90;;;;;;;;;;5068174;28;20036;-91
2022/09/08 10:59:21;;;;;;;5.15;1.58;;;;;;;;;;5067811;28;20028;-90
2022/09/08 11:02:02;;;;;;;10.15;1.83;;;;;;;;;;5066963;28;20225;-86
2022/09/08 11:05:09;;;;;;;7.43;1.88;;;;;;;;;;5066869;28;20049;-89
2022/09/08 11:07:53;;;;;;;7.43;1.52;;;;;;;;;;5057194;28;20033;-88
2022/09/08 11:10:34;;;;;;;10.88;1.98;;;;;;;;;;5066590;28;20043;-89
2022/09/08 11:13:06;;;;;;;7.85;1.77;;;;;;;;;;5066123;28;20140;-90
2022/09/08 11:15:37;;;;;;;7.00;1.98;;;;;;;;;;5066350;28;20028;-87
2022/09/08 11:18:32;;;;;;;9.77;1.90;;;;;;;;;;5067314;28;20096;-86
2022/09/08 11:21:07;;;;;;;11.35;1.90;;;;;;;;;;5066108;28;20378;-90
2022/09/08 11:23:51;;;;;;;6.95;1.60;;;;;;;;;;5065882;28;20033;-88
2022/09/08 11:26:43;;;;;;;6.33;1.60;;;;;;;;;;5067375;28;20040;-87
2022/09/08 11:29:12;;;;;;;10.88;1.73;;;;;;;;;;5067157;28;20374;-90
2022/09/08 11:32:15;;;;;;;8.68;1.85;;;;;;;;;;5066226;28;20095;-86
2022/09/08 11:35:02;;;;;;;7.47;1.70;;;;;;;;;;5067151;28;20036;-89
2022/09/08 11:37:42;;;;;;;7.95;1.70;;;;;;;;;;5067674;28;20035;-88
2022/09/08 11:40:45;;;;;;;6.47;1.55;;;;;;;;;;5068073;28;20331;-90
2022/09/08 11:43:10;;;;;;;7.53;1.48;;;;;;;;;;5067143;28;20033;-91
2022/09/08 11:46:13;;;;;;;5.28;1.58;;;;;;;;;;5068367;28;20276;-87
2022/09/08 11:48:39;;;;;;;8.93;2.13;;;;;;;;;;5066322;28;20091;-91
2022/09/08 11:51:54;;;;;;;8.25;1.70;;;;;;;;;;5066388;28;20367;-92
2022/09/08 11:54:42;;;;;;;6.57;1.70;;;;;;;;;;5044787;28;20029;-92
2022/09/08 11:57:19;;;;;;;7.78;1.80;;;;;;;;;;5044645;28;20246;-94
2022/09/08 12:10:47;;;;;;;7.32;1.65;;;;;;;;;;4947327;29;20361;-92
2022/09/08 12:17:14;;;;;;;7.38;1.70;;;;;;;;;;4985550;28;20089;-93
2022/09/08 12:20:26;;;;;;;7.93;1.98;;;;;;;;;;4985737;28;20290;-92
2022/09/08 12:33:50;;;;;;;7.22;1.70;;;;;;;;;;4985460;28;20086;-93
2022/09/08 12:56:55;;;;;;;13.20;2.03;;;;;;;;;;5025530;28;20088;-88
2022/09/08 13:03:19;;;;;;;7.65;1.70;;;;;;;;;;5016792;28;20109;-91
2022/09/08 13:06:02;;;;;;;8.30;1.65;;;;;;;;;;5023359;28;20058;-87
2022/09/08 13:09:06;;;;;;;5.97;1.67;;;;;;;;;;5023842;28;20025;-84
2022/09/08 13:11:50;;;;;;;8.82;1.90;;;;;;;;;;5024325;28;20030;-91
2022/09/08 13:14:55;;;;;;;6.15;1.40;;;;;;;;;;5025309;28;20045;-92
2022/09/08 13:17:42;;;;;;;9.45;1.80;;;;;;;;;;5003062;28;20034;-87
2022/09/08 13:20:29;;;;;;;4.40;1.50;;;;;;;;;;5025474;28;20030;-84
2022/09/08 13:23:18;;;;;;;5.72;1.55;;;;;;;;;;5025156;28;20022;-86
2022/09/08 13:25:58;;;;;;;7.65;1.55;;;;;;;;;;5025321;28;20022;-89
2022/09/08 13:28:35;;;;;;;7.57;1.63;;;;;;;;;;5025579;28;20022;-89
2022/09/08 13:31:24;;;;;;;8.20;1.48;;;;;;;;;;5024031;28;20025;-88
2022/09/08 13:34:20;;;;;;;5.97;1.50;;;;;;;;;;5024979;28;20048;-92
2022/09/08 13:37:10;;;;;;;9.13;1.60;;;;;;;;;;5005930;28;20081;-88
2022/09/08 13:39:47;;;;;;;6.32;1.50;;;;;;;;;;5025216;28;20026;-91
2022/09/08 13:42:22;;;;;;;7.22;1.70;;;;;;;;;;5024926;28;20029;-91
2022/09/08 13:45:19;;;;;;;4.93;1.40;;;;;;;;;;5024924;28;20259;-90
2022/09/08 13:48:25;;;;;;;9.52;1.75;;;;;;;;;;5024693;28;20061;-93
2022/09/08 13:50:53;;;;;;;;;;;;;;;;;;5025484;28;20044;-90
2022/09/08 13:53:38;;;;;;;7.50;1.60;;;;;;;;;;5023285;28;20035;-90
2022/09/08 13:56:28;;;;;;;7.07;1.60;;;;;;;;;;5023717;28;20026;-89
2022/09/08 13:59:03;;;;;;;8.75;1.65;;;;;;;;;;5024565;28;20030;-86
2022/09/08 14:01:34;;;;;;;;;;;;;;;;;;5024968;28;20117;-90
2022/09/08 14:04:05;;;;;;;7.93;1.70;;;;;;;;;;5024651;28;19955;-89
2022/09/08 14:06:42;;;;;;;5.95;1.50;;;;;;;;;;5024474;28;20106;-87
2022/09/08 14:09:23;;;;;;;5.35;1.60;;;;;;;;;;5024366;28;20025;-89
2022/09/08 14:11:57;;;;;;;7.40;1.50;;;;;;;;;;5024283;28;20040;-89
2022/09/08 14:14:59;;;;;;;6.57;1.67;;;;;;;;;;5024540;28;20063;-93
2022/09/08 14:17:45;;;;;;;7.35;2.17;;;;;;;;;;5023639;28;20030;-92
2022/09/08 14:20:18;;;;;;;6.85;1.80;;;;;;;;;;5024298;28;20022;-92
2022/09/08 14:22:43;;;;;;;6.47;1.63;;;;;;;;;;5022810;28;20036;-87
2022/09/08 14:25:20;;;;;;;6.05;1.55;;;;;;;;;;5024119;28;20030;-86
2022/09/08 14:28:52;;;;;;;7.28;1.60;;;;;;;;;;5024388;28;20021;-91
2022/09/08 14:46:38;;;;;;;7.57;2.10;;;;;;;;;;6029475;22;20017;-92
2022/09/08 14:49:44;;;;;;;7.72;2.40;;;;;;;;;;5122078;22;20053;-93
2022/09/08 14:53:03;;;;;;;7.55;1.45;;;;;;;;;;5004404;28;20195;-95
2022/09/08 15:01:00;;;;;;;8.50;2.22;;;;;;;;;;5296220;22;20054;-92
2022/09/08 15:03:40;;;;;;;8.10;2.08;;;;;;;;;;5022853;28;20033;-90
2022/09/08 15:06:52;;;;;;;9.13;2.10;;;;;;;;;;5262362;22;20316;-93
2022/09/08 15:13:37;;;;;;;8.43;1.65;;;;;;;;;;5007009;28;20045;-96
2022/09/08 15:16:11;;;;;;;8.02;1.70;;;;;;;;;;4983261;28;20030;-93
2022/09/08 15:18:57;;;;;;;7.57;1.60;;;;;;;;;;4982853;28;20026;-86
2022/09/08 15:22:17;;;;;;;4.57;1.50;;;;;;;;;;4997233;28;20030;-94
2022/09/08 15:28:23;;;;;;;5.68;1.60;;;;;;;;;;4963263;28;20061;-91
2022/09/08 15:31:13;;;;;;;6.55;1.65;;;;;;;;;;4982635;28;20034;-88
2022/09/08 15:34:01;;;;;;;8.00;1.80;;;;;;;;;;5007513;28;20022;-89
2022/09/08 15:36:49;;;;;;;6.45;1.40;;;;;;;;;;5007555;28;20061;-88
2022/09/08 15:39:20;;;;;;;5.55;1.60;;;;;;;;;;5007546;28;20026;-85
2022/09/08 15:41:53;;;;;;;7.45;1.40;;;;;;;;;;5007714;28;20026;-91
2022/09/08 15:44:50;;;;;;;;;;;;;;;;;;;;;
2022/09/08 15:48:01;;;;;;;7.47;1.65;;;;;;;;;;5007761;28;20263;-90
2022/09/08 15:51:24;;;;;;;6.32;1.70;;;;;;;;;;5007192;28;20069;-92
2022/09/08 16:09:54;;;;;;;4.53;1.30;;;;;;;;;;6010347;22;20262;-93
2022/09/08 16:12:21;;;;;;;6.15;1.52;;;;;;;;;;5007176;28;20033;-86
2022/09/08 16:15:30;;;;;;;5.43;1.58;;;;;;;;;;5006998;28;20033;-89
2022/09/08 16:18:31;;;;;;;3.90;1.20;;;;;;;;;;5014702;22;20096;-94
2022/09/08 16:24:45;;;;;;;;;;;;;;;;;;;;;
2022/09/08 16:33:10;;;;;;;5.30;1.80;;;;;;;;;;5006508;28;20053;-86
2022/09/08 16:44:35;;;;;;;4.68;1.45;;;;;;;;;;4957864;28;20374;-95
2022/09/08 16:47:09;;;;;;;4.35;1.35;;;;;;;;;;4986892;28;20072;-96
2022/09/08 16:49:43;;;;;;;4.78;1.35;;;;;;;;;;4969490;28;20332;-90
2022/09/08 16:52:27;;;;;;;4.30;1.42;;;;;;;;;;4987225;28;20030;-89
2022/09/08 16:54:53;;;;;;;6.60;1.30;;;;;;;;;;4969811;28;20023;-92
2022/09/08 16:57:55;;;;;;;3.90;1.20;;;;;;;;;;4970089;28;20285;-95
2022/09/08 17:00:24;;;;;;;4.72;1.23;;;;;;;;;;4986719;28;20310;-89
2022/09/08 17:02:54;;;;;;;5.20;1.30;;;;;;;;;;4986219;28;20213;-94
2022/09/08 17:05:50;;;;;;;6.47;1.92;;;;;;;;;;4968725;28;20035;-93
2022/09/08 17:08:38;;;;;;;5.68;1.35;;;;;;;;;;4987137;28;20027;-87
2022/09/08 17:11:35;;;;;;;4.18;1.40;;;;;;;;;;4986291;28;20072;-95
2022/09/08 17:14:02;;;;;;;6.10;1.45;;;;;;;;;;4954032;28;20049;-86
2022/09/08 17:16:59;;;;;;;5.43;1.35;;;;;;;;;;4986048;28;20019;-88
2022/09/08 17:19:31;;;;;;;4.32;1.30;;;;;;;;;;4986467;28;20027;-92
2022/09/08 17:22:09;;;;;;;6.25;1.40;;;;;;;;;;4987002;28;20032;-86
2022/09/08 17:24:40;;;;;;;4.30;1.40;;;;;;;;;;4986143;28;20042;-85
2022/09/08 17:27:12;;;;;;;4.03;1.25;;;;;;;;;;4985954;28;20337;-87
2022/09/08 17:29:52;;;;;;;5.55;1.40;;;;;;;;;;4986111;28;20303;-87
2022/09/08 17:32:55;;;;;;;5.00;1.30;;;;;;;;;;4986233;28;20026;-96
2022/09/08 17:35:36;;;;;;;5.43;1.30;;;;;;;;;;4987313;28;20026;-91
2022/09/08 17:38:38;;;;;;;4.53;1.30;;;;;;;;;;4985732;28;20315;-91